sensor_id;sensor_type;location;lat;lon;timestamp;P1;durP1;ratioP1;P2;durP2;ratioP2
20802;SDS011;10562;-33.856;151.182;2023-05-15T00:01:30;47.50;;;43.22;;
20802;SDS011;10562;-33.856;151.182;2023-05-15T00:04:01;47.63;;;43.15;;
20802;SDS011;10562;-33.856;151.182;2023-05-15T00:06:33;45.50;;;41.47;;
20802;SDS011;10562;-33.856;151.182;2023-05-15T00:09:04;46.55;;;42.35;;
20802;SDS011;10562;-33.856;151.182;2023-05-15T00:11:36;48.80;;;44.45;;
20802;SDS011;10562;-33.856;151.182;2023-05-15T00:14:09;45.60;;;41.45;;
20802;SDS011;10562;-33.856;151.182;2023-05-15T00:16:40;35.92;;;32.53;;
20802;SDS011;10562;-33.856;151.182;2023-05-15T00:19:11;34.28;;;31.13;;
20802;SDS011;10562;-33.856;151.182;2023-05-15T00:21:44;31.48;;;28.15;;
20802;SDS011;10562;-33.856;151.182;2023-05-15T00:24:15;28.35;;;25.63;;
20802;SDS011;10562;-33.856;151.182;2023-05-15T00:26:46;29.35;;;26.65;;
20802;SDS011;10562;-33.856;151.182;2023-05-15T00:29:16;29.25;;;25.70;;
20802;SDS011;10562;-33.856;151.182;2023-05-15T00:31:47;26.98;;;24.48;;
20802;SDS011;10562;-33.856;151.182;2023-05-15T00:34:18;28.30;;;25.73;;
20802;SDS011;10562;-33.856;151.182;2023-05-15T00:36:51;27.98;;;25.27;;
20802;SDS011;10562;-33.856;151.182;2023-05-15T00:39:22;28.95;;;21.00;;
20802;SDS011;10562;-33.856;151.182;2023-05-15T00:41:53;21.63;;;19.63;;
20802;SDS011;10562;-33.856;151.182;2023-05-15T00:44:25;20.42;;;18.50;;
20802;SDS011;10562;-33.856;151.182;2023-05-15T00:46:56;20.77;;;18.65;;
20802;SDS011;10562;-33.856;151.182;2023-05-15T00:49:29;19.35;;;17.40;;
20802;SDS011;10562;-33.856;151.182;2023-05-15T00:52:02;18.40;;;16.75;;
20802;SDS011;10562;-33.856;151.182;2023-05-15T00:54:33;15.75;;;14.35;;
20802;SDS011;10562;-33.856;151.182;2023-05-15T00:57:04;16.50;;;12.95;;
20802;SDS011;10562;-33.856;151.182;2023-05-15T00:59:36;16.98;;;12.13;;
20802;SDS011;10562;-33.856;151.182;2023-05-15T01:02:08;14.57;;;12.10;;
20802;SDS011;10562;-33.856;151.182;2023-05-15T01:04:40;15.40;;;12.23;;
20802;SDS011;10562;-33.856;151.182;2023-05-15T01:07:12;13.68;;;12.38;;
20802;SDS011;10562;-33.856;151.182;2023-05-15T01:09:43;13.68;;;12.38;;
20802;SDS011;10562;-33.856;151.182;2023-05-15T01:12:15;14.25;;;12.93;;
20802;SDS011;10562;-33.856;151.182;2023-05-15T01:14:49;15.15;;;13.75;;
20802;SDS011;10562;-33.856;151.182;2023-05-15T01:17:20;15.45;;;13.82;;
20802;SDS011;10562;-33.856;151.182;2023-05-15T01:19:51;15.25;;;13.90;;
20802;SDS011;10562;-33.856;151.182;2023-05-15T01:25:34;19.08;;;17.08;;
20802;SDS011;10562;-33.856;151.182;2023-05-15T01:28:29;18.27;;;16.58;;
20802;SDS011;10562;-33.856;151.182;2023-05-15T01:31:15;19.17;;;17.58;;
20802;SDS011;10562;-33.856;151.182;2023-05-15T01:33:51;18.25;;;16.65;;
20802;SDS011;10562;-33.856;151.182;2023-05-15T01:36:29;20.67;;;18.83;;
20802;SDS011;10562;-33.856;151.182;2023-05-15T01:39:04;18.92;;;17.17;;
20802;SDS011;10562;-33.856;151.182;2023-05-15T01:41:40;17.73;;;16.15;;
20802;SDS011;10562;-33.856;151.182;2023-05-15T01:44:19;18.92;;;17.23;;
20802;SDS011;10562;-33.856;151.182;2023-05-15T01:46:54;19.42;;;17.35;;
20802;SDS011;10562;-33.856;151.182;2023-05-15T01:49:27;18.85;;;17.05;;
20802;SDS011;10562;-33.856;151.182;2023-05-15T01:52:00;18.65;;;16.83;;
20802;SDS011;10562;-33.856;151.182;2023-05-15T01:54:34;18.83;;;16.98;;
20802;SDS011;10562;-33.856;151.182;2023-05-15T01:57:08;20.48;;;18.67;;
20802;SDS011;10562;-33.856;151.182;2023-05-15T01:59:41;18.70;;;17.02;;
20802;SDS011;10562;-33.856;151.182;2023-05-15T02:02:13;18.27;;;16.63;;
20802;SDS011;10562;-33.856;151.182;2023-05-15T02:04:45;21.00;;;19.10;;
20802;SDS011;10562;-33.856;151.182;2023-05-15T02:07:17;21.52;;;19.35;;
20802;SDS011;10562;-33.856;151.182;2023-05-15T02:09:48;22.85;;;20.92;;
20802;SDS011;10562;-33.856;151.182;2023-05-15T02:12:22;22.20;;;20.02;;
20802;SDS011;10562;-33.856;151.182;2023-05-15T02:14:56;21.45;;;19.45;;
20802;SDS011;10562;-33.856;151.182;2023-05-15T02:17:28;18.10;;;16.58;;
20802;SDS011;10562;-33.856;151.182;2023-05-15T02:19:59;18.20;;;16.50;;
20802;SDS011;10562;-33.856;151.182;2023-05-15T02:22:31;18.83;;;17.23;;
20802;SDS011;10562;-33.856;151.182;2023-05-15T02:25:01;19.13;;;17.30;;
20802;SDS011;10562;-33.856;151.182;2023-05-15T02:27:34;19.35;;;17.38;;
20802;SDS011;10562;-33.856;151.182;2023-05-15T02:30:22;17.60;;;16.02;;
20802;SDS011;10562;-33.856;151.182;2023-05-15T02:33:03;17.33;;;15.68;;
20802;SDS011;10562;-33.856;151.182;2023-05-15T02:35:50;17.13;;;15.70;;
20802;SDS011;10562;-33.856;151.182;2023-05-15T02:38:27;17.85;;;16.20;;
20802;SDS011;10562;-33.856;151.182;2023-05-15T02:41:03;16.00;;;14.45;;
20802;SDS011;10562;-33.856;151.182;2023-05-15T02:43:36;16.45;;;15.05;;
20802;SDS011;10562;-33.856;151.182;2023-05-15T02:46:11;17.73;;;16.13;;
20802;SDS011;10562;-33.856;151.182;2023-05-15T02:48:43;14.25;;;13.02;;
20802;SDS011;10562;-33.856;151.182;2023-05-15T02:51:17;12.75;;;11.52;;
20802;SDS011;10562;-33.856;151.182;2023-05-15T02:53:48;9.68;;;8.68;;
20802;SDS011;10562;-33.856;151.182;2023-05-15T02:56:20;9.00;;;7.90;;
20802;SDS011;10562;-33.856;151.182;2023-05-15T02:58:51;7.00;;;6.30;;
20802;SDS011;10562;-33.856;151.182;2023-05-15T03:01:24;7.82;;;5.15;;
20802;SDS011;10562;-33.856;151.182;2023-05-15T03:03:55;6.93;;;4.20;;
20802;SDS011;10562;-33.856;151.182;2023-05-15T03:06:25;7.80;;;3.97;;
20802;SDS011;10562;-33.856;151.182;2023-05-15T03:08:56;4.43;;;3.85;;
20802;SDS011;10562;-33.856;151.182;2023-05-15T03:11:27;7.75;;;3.42;;
20802;SDS011;10562;-33.856;151.182;2023-05-15T03:13:58;3.22;;;2.30;;
20802;SDS011;10562;-33.856;151.182;2023-05-15T03:16:30;4.72;;;2.30;;
20802;SDS011;10562;-33.856;151.182;2023-05-15T03:19:02;3.65;;;2.25;;
20802;SDS011;10562;-33.856;151.182;2023-05-15T03:21:33;5.97;;;1.88;;
20802;SDS011;10562;-33.856;151.182;2023-05-15T03:24:03;4.70;;;1.80;;
20802;SDS011;10562;-33.856;151.182;2023-05-15T03:26:34;4.43;;;1.83;;
20802;SDS011;10562;-33.856;151.182;2023-05-15T03:29:06;7.78;;;1.95;;
20802;SDS011;10562;-33.856;151.182;2023-05-15T03:31:39;8.98;;;2.40;;
20802;SDS011;10562;-33.856;151.182;2023-05-15T03:34:09;8.90;;;2.10;;
20802;SDS011;10562;-33.856;151.182;2023-05-15T03:36:40;9.20;;;1.70;;
20802;SDS011;10562;-33.856;151.182;2023-05-15T03:39:11;10.57;;;1.50;;
20802;SDS011;10562;-33.856;151.182;2023-05-15T03:41:42;3.35;;;0.93;;
20802;SDS011;10562;-33.856;151.182;2023-05-15T03:44:12;2.65;;;0.55;;
20802;SDS011;10562;-33.856;151.182;2023-05-15T03:46:45;4.07;;;0.80;;
20802;SDS011;10562;-33.856;151.182;2023-05-15T03:49:16;4.72;;;0.70;;
20802;SDS011;10562;-33.856;151.182;2023-05-15T03:51:47;5.05;;;0.77;;
20802;SDS011;10562;-33.856;151.182;2023-05-15T03:54:17;7.65;;;0.90;;
20802;SDS011;10562;-33.856;151.182;2023-05-15T03:56:48;5.13;;;0.90;;
20802;SDS011;10562;-33.856;151.182;2023-05-15T03:59:19;2.70;;;0.70;;
20802;SDS011;10562;-33.856;151.182;2023-05-15T04:01:52;4.75;;;0.60;;
20802;SDS011;10562;-33.856;151.182;2023-05-15T04:04:23;1.15;;;0.40;;
20802;SDS011;10562;-33.856;151.182;2023-05-15T04:06:54;4.28;;;0.68;;
20802;SDS011;10562;-33.856;151.182;2023-05-15T04:09:25;5.22;;;0.73;;
20802;SDS011;10562;-33.856;151.182;2023-05-15T04:11:56;3.03;;;0.70;;
20802;SDS011;10562;-33.856;151.182;2023-05-15T04:14:26;3.72;;;0.60;;
20802;SDS011;10562;-33.856;151.182;2023-05-15T04:16:59;4.55;;;0.77;;
20802;SDS011;10562;-33.856;151.182;2023-05-15T04:19:30;1.45;;;0.50;;
20802;SDS011;10562;-33.856;151.182;2023-05-15T04:22:01;6.38;;;0.98;;
20802;SDS011;10562;-33.856;151.182;2023-05-15T04:24:32;1.75;;;0.60;;
20802;SDS011;10562;-33.856;151.182;2023-05-15T04:27:02;3.63;;;0.65;;
20802;SDS011;10562;-33.856;151.182;2023-05-15T04:29:34;6.00;;;0.60;;
20802;SDS011;10562;-33.856;151.182;2023-05-15T04:32:07;4.55;;;0.75;;
20802;SDS011;10562;-33.856;151.182;2023-05-15T04:34:37;1.10;;;0.50;;
20802;SDS011;10562;-33.856;151.182;2023-05-15T04:37:09;3.70;;;0.70;;
20802;SDS011;10562;-33.856;151.182;2023-05-15T04:39:39;3.88;;;0.73;;
20802;SDS011;10562;-33.856;151.182;2023-05-15T04:42:10;2.92;;;0.70;;
20802;SDS011;10562;-33.856;151.182;2023-05-15T04:44:41;2.45;;;0.40;;
20802;SDS011;10562;-33.856;151.182;2023-05-15T04:47:14;2.70;;;0.75;;
20802;SDS011;10562;-33.856;151.182;2023-05-15T04:49:44;2.50;;;0.50;;
20802;SDS011;10562;-33.856;151.182;2023-05-15T04:52:16;2.00;;;0.60;;
20802;SDS011;10562;-33.856;151.182;2023-05-15T04:54:47;4.40;;;0.65;;
20802;SDS011;10562;-33.856;151.182;2023-05-15T04:57:18;2.33;;;0.60;;
20802;SDS011;10562;-33.856;151.182;2023-05-15T04:59:49;1.27;;;0.50;;
20802;SDS011;10562;-33.856;151.182;2023-05-15T05:02:22;3.13;;;0.50;;
20802;SDS011;10562;-33.856;151.182;2023-05-15T05:04:53;3.05;;;0.57;;
20802;SDS011;10562;-33.856;151.182;2023-05-15T05:07:23;4.25;;;0.60;;
20802;SDS011;10562;-33.856;151.182;2023-05-15T05:09:54;1.20;;;0.57;;
20802;SDS011;10562;-33.856;151.182;2023-05-15T05:12:25;3.15;;;0.60;;
20802;SDS011;10562;-33.856;151.182;2023-05-15T05:14:56;2.60;;;0.63;;
20802;SDS011;10562;-33.856;151.182;2023-05-15T05:17:28;3.28;;;0.90;;
20802;SDS011;10562;-33.856;151.182;2023-05-15T05:20:00;2.58;;;0.70;;
20802;SDS011;10562;-33.856;151.182;2023-05-15T05:22:34;2.33;;;0.70;;
20802;SDS011;10562;-33.856;151.182;2023-05-15T05:25:05;2.70;;;0.75;;
20802;SDS011;10562;-33.856;151.182;2023-05-15T05:27:36;2.83;;;0.77;;
20802;SDS011;10562;-33.856;151.182;2023-05-15T05:30:07;2.28;;;0.75;;
20802;SDS011;10562;-33.856;151.182;2023-05-15T05:32:41;2.70;;;0.82;;
20802;SDS011;10562;-33.856;151.182;2023-05-15T05:35:11;2.28;;;0.70;;
20802;SDS011;10562;-33.856;151.182;2023-05-15T05:37:42;2.70;;;0.80;;
20802;SDS011;10562;-33.856;151.182;2023-05-15T05:40:13;3.78;;;0.63;;
20802;SDS011;10562;-33.856;151.182;2023-05-15T05:42:44;2.28;;;0.80;;
20802;SDS011;10562;-33.856;151.182;2023-05-15T05:45:15;3.55;;;0.60;;
20802;SDS011;10562;-33.856;151.182;2023-05-15T05:47:48;3.72;;;0.70;;
20802;SDS011;10562;-33.856;151.182;2023-05-15T05:50:19;3.40;;;0.70;;
20802;SDS011;10562;-33.856;151.182;2023-05-15T05:52:49;3.17;;;0.82;;
20802;SDS011;10562;-33.856;151.182;2023-05-15T05:55:20;3.40;;;0.90;;
20802;SDS011;10562;-33.856;151.182;2023-05-15T05:57:51;2.10;;;0.73;;
20802;SDS011;10562;-33.856;151.182;2023-05-15T06:00:22;2.88;;;0.70;;
20802;SDS011;10562;-33.856;151.182;2023-05-15T06:02:55;1.38;;;0.60;;
20802;SDS011;10562;-33.856;151.182;2023-05-15T06:05:27;1.35;;;0.80;;
20802;SDS011;10562;-33.856;151.182;2023-05-15T06:07:58;4.00;;;0.80;;
20802;SDS011;10562;-33.856;151.182;2023-05-15T06:10:29;2.00;;;0.80;;
20802;SDS011;10562;-33.856;151.182;2023-05-15T06:13:00;4.68;;;0.90;;
20802;SDS011;10562;-33.856;151.182;2023-05-15T06:15:31;4.30;;;0.90;;
20802;SDS011;10562;-33.856;151.182;2023-05-15T06:18:04;2.65;;;1.00;;
20802;SDS011;10562;-33.856;151.182;2023-05-15T06:20:35;2.75;;;1.20;;
20802;SDS011;10562;-33.856;151.182;2023-05-15T06:23:07;4.55;;;0.90;;
20802;SDS011;10562;-33.856;151.182;2023-05-15T06:25:39;2.47;;;0.80;;
20802;SDS011;10562;-33.856;151.182;2023-05-15T06:28:10;3.20;;;1.00;;
20802;SDS011;10562;-33.856;151.182;2023-05-15T06:30:41;4.93;;;1.27;;
20802;SDS011;10562;-33.856;151.182;2023-05-15T06:33:14;3.22;;;1.08;;
20802;SDS011;10562;-33.856;151.182;2023-05-15T06:35:46;2.33;;;0.90;;
20802;SDS011;10562;-33.856;151.182;2023-05-15T06:38:17;2.97;;;0.80;;
20802;SDS011;10562;-33.856;151.182;2023-05-15T06:40:48;1.23;;;1.00;;
20802;SDS011;10562;-33.856;151.182;2023-05-15T06:43:18;2.90;;;0.95;;
20802;SDS011;10562;-33.856;151.182;2023-05-15T06:45:49;3.58;;;0.90;;
20802;SDS011;10562;-33.856;151.182;2023-05-15T06:48:22;2.70;;;0.80;;
20802;SDS011;10562;-33.856;151.182;2023-05-15T06:50:52;2.65;;;0.90;;
20802;SDS011;10562;-33.856;151.182;2023-05-15T06:53:23;2.10;;;0.98;;
20802;SDS011;10562;-33.856;151.182;2023-05-15T06:55:54;3.38;;;1.00;;
20802;SDS011;10562;-33.856;151.182;2023-05-15T06:58:25;2.30;;;1.05;;
20802;SDS011;10562;-33.856;151.182;2023-05-15T07:00:55;1.40;;;0.90;;
20802;SDS011;10562;-33.856;151.182;2023-05-15T07:03:28;2.08;;;1.27;;
20802;SDS011;10562;-33.856;151.182;2023-05-15T07:05:59;7.32;;;3.30;;
20802;SDS011;10562;-33.856;151.182;2023-05-15T07:08:30;12.70;;;6.95;;
20802;SDS011;10562;-33.856;151.182;2023-05-15T07:11:00;10.32;;;5.97;;
20802;SDS011;10562;-33.856;151.182;2023-05-15T07:13:31;8.63;;;4.85;;
20802;SDS011;10562;-33.856;151.182;2023-05-15T07:16:03;7.57;;;3.67;;
20802;SDS011;10562;-33.856;151.182;2023-05-15T07:18:36;3.58;;;2.90;;
20802;SDS011;10562;-33.856;151.182;2023-05-15T07:21:07;3.13;;;2.40;;
20802;SDS011;10562;-33.856;151.182;2023-05-15T07:23:38;4.18;;;3.10;;
20802;SDS011;10562;-33.856;151.182;2023-05-15T07:26:09;6.25;;;3.20;;
20802;SDS011;10562;-33.856;151.182;2023-05-15T07:28:41;10.55;;;4.97;;
20802;SDS011;10562;-33.856;151.182;2023-05-15T07:31:12;7.35;;;4.75;;
20802;SDS011;10562;-33.856;151.182;2023-05-15T07:33:44;7.18;;;4.72;;
20802;SDS011;10562;-33.856;151.182;2023-05-15T07:36:15;5.43;;;4.05;;
20802;SDS011;10562;-33.856;151.182;2023-05-15T07:38:46;6.40;;;4.20;;
20802;SDS011;10562;-33.856;151.182;2023-05-15T07:41:17;5.30;;;4.80;;
20802;SDS011;10562;-33.856;151.182;2023-05-15T07:43:47;5.75;;;5.10;;
20802;SDS011;10562;-33.856;151.182;2023-05-15T07:46:18;6.45;;;5.22;;
20802;SDS011;10562;-33.856;151.182;2023-05-15T07:48:51;5.53;;;4.80;;
20802;SDS011;10562;-33.856;151.182;2023-05-15T07:51:23;6.93;;;6.20;;
20802;SDS011;10562;-33.856;151.182;2023-05-15T07:53:54;7.00;;;6.40;;
20802;SDS011;10562;-33.856;151.182;2023-05-15T07:56:24;6.25;;;5.65;;
20802;SDS011;10562;-33.856;151.182;2023-05-15T07:58:55;9.60;;;7.35;;
20802;SDS011;10562;-33.856;151.182;2023-05-15T08:01:26;7.45;;;6.85;;
20802;SDS011;10562;-33.856;151.182;2023-05-15T08:03:58;8.73;;;8.02;;
20802;SDS011;10562;-33.856;151.182;2023-05-15T08:06:29;10.68;;;9.48;;
20802;SDS011;10562;-33.856;151.182;2023-05-15T08:09:00;10.93;;;9.93;;
20802;SDS011;10562;-33.856;151.182;2023-05-15T08:11:31;11.50;;;10.35;;
20802;SDS011;10562;-33.856;151.182;2023-05-15T08:14:02;10.35;;;9.32;;
20802;SDS011;10562;-33.856;151.182;2023-05-15T08:16:33;13.45;;;12.00;;
20802;SDS011;10562;-33.856;151.182;2023-05-15T08:19:05;13.23;;;12.23;;
20802;SDS011;10562;-33.856;151.182;2023-05-15T08:21:36;14.95;;;13.65;;
20802;SDS011;10562;-33.856;151.182;2023-05-15T08:24:07;16.48;;;15.23;;
20802;SDS011;10562;-33.856;151.182;2023-05-15T08:26:38;17.05;;;15.63;;
20802;SDS011;10562;-33.856;151.182;2023-05-15T08:29:09;16.45;;;15.25;;
20802;SDS011;10562;-33.856;151.182;2023-05-15T08:31:41;18.83;;;17.23;;
20802;SDS011;10562;-33.856;151.182;2023-05-15T08:34:15;20.42;;;18.73;;
20802;SDS011;10562;-33.856;151.182;2023-05-15T08:36:45;19.35;;;17.75;;
20802;SDS011;10562;-33.856;151.182;2023-05-15T08:39:17;21.92;;;20.10;;
20802;SDS011;10562;-33.856;151.182;2023-05-15T08:41:50;20.88;;;19.08;;
20802;SDS011;10562;-33.856;151.182;2023-05-15T08:44:24;24.60;;;22.70;;
20802;SDS011;10562;-33.856;151.182;2023-05-15T08:46:56;24.13;;;22.13;;
20802;SDS011;10562;-33.856;151.182;2023-05-15T08:49:35;25.92;;;23.92;;
20802;SDS011;10562;-33.856;151.182;2023-05-15T08:52:12;25.63;;;23.63;;
20802;SDS011;10562;-33.856;151.182;2023-05-15T08:54:44;31.33;;;28.92;;
20802;SDS011;10562;-33.856;151.182;2023-05-15T08:57:16;31.42;;;28.92;;
20802;SDS011;10562;-33.856;151.182;2023-05-15T08:59:47;31.45;;;28.95;;
20802;SDS011;10562;-33.856;151.182;2023-05-15T09:02:19;30.77;;;28.45;;
20802;SDS011;10562;-33.856;151.182;2023-05-15T09:04:52;31.45;;;29.15;;
20802;SDS011;10562;-33.856;151.182;2023-05-15T09:07:23;32.55;;;30.10;;
20802;SDS011;10562;-33.856;151.182;2023-05-15T09:09:54;35.20;;;32.40;;
20802;SDS011;10562;-33.856;151.182;2023-05-15T09:12:26;35.90;;;33.08;;
20802;SDS011;10562;-33.856;151.182;2023-05-15T09:15:09;37.10;;;33.95;;
20802;SDS011;10562;-33.856;151.182;2023-05-15T09:17:42;37.58;;;34.42;;
20802;SDS011;10562;-33.856;151.182;2023-05-15T09:20:28;41.15;;;37.85;;
20802;SDS011;10562;-33.856;151.182;2023-05-15T09:22:59;41.00;;;37.80;;
20802;SDS011;10562;-33.856;151.182;2023-05-15T09:25:31;42.50;;;39.05;;
20802;SDS011;10562;-33.856;151.182;2023-05-15T09:28:03;43.58;;;39.90;;
20802;SDS011;10562;-33.856;151.182;2023-05-15T09:30:36;43.83;;;40.40;;
20802;SDS011;10562;-33.856;151.182;2023-05-15T09:33:09;45.25;;;41.65;;
20802;SDS011;10562;-33.856;151.182;2023-05-15T09:35:42;43.97;;;40.65;;
20802;SDS011;10562;-33.856;151.182;2023-05-15T09:38:13;45.03;;;41.45;;
20802;SDS011;10562;-33.856;151.182;2023-05-15T09:40:44;44.83;;;41.40;;
20802;SDS011;10562;-33.856;151.182;2023-05-15T09:43:15;47.92;;;43.55;;
20802;SDS011;10562;-33.856;151.182;2023-05-15T09:45:46;45.85;;;42.33;;
20802;SDS011;10562;-33.856;151.182;2023-05-15T09:48:17;51.75;;;47.78;;
20802;SDS011;10562;-33.856;151.182;2023-05-15T09:50:50;52.45;;;48.40;;
20802;SDS011;10562;-33.856;151.182;2023-05-15T09:53:21;56.45;;;52.13;;
20802;SDS011;10562;-33.856;151.182;2023-05-15T09:55:52;59.65;;;54.55;;
20802;SDS011;10562;-33.856;151.182;2023-05-15T09:58:23;55.67;;;51.08;;
20802;SDS011;10562;-33.856;151.182;2023-05-15T10:00:54;54.45;;;50.03;;
20802;SDS011;10562;-33.856;151.182;2023-05-15T10:03:29;52.60;;;48.38;;
20802;SDS011;10562;-33.856;151.182;2023-05-15T10:06:01;54.90;;;49.95;;
20802;SDS011;10562;-33.856;151.182;2023-05-15T10:08:33;55.75;;;51.15;;
20802;SDS011;10562;-33.856;151.182;2023-05-15T10:11:04;56.50;;;51.83;;
20802;SDS011;10562;-33.856;151.182;2023-05-15T10:13:35;56.35;;;51.80;;
20802;SDS011;10562;-33.856;151.182;2023-05-15T10:16:06;57.03;;;52.50;;
20802;SDS011;10562;-33.856;151.182;2023-05-15T10:18:37;59.30;;;54.63;;
20802;SDS011;10562;-33.856;151.182;2023-05-15T10:21:11;59.65;;;55.08;;
20802;SDS011;10562;-33.856;151.182;2023-05-15T10:23:44;61.92;;;57.08;;
20802;SDS011;10562;-33.856;151.182;2023-05-15T10:26:19;61.72;;;56.92;;
20802;SDS011;10562;-33.856;151.182;2023-05-15T10:28:51;74.70;;;69.03;;
20802;SDS011;10562;-33.856;151.182;2023-05-15T10:31:22;87.85;;;81.43;;
20802;SDS011;10562;-33.856;151.182;2023-05-15T10:33:54;90.25;;;83.57;;
20802;SDS011;10562;-33.856;151.182;2023-05-15T10:36:27;96.25;;;89.40;;
20802;SDS011;10562;-33.856;151.182;2023-05-15T10:38:59;98.10;;;90.85;;
20802;SDS011;10562;-33.856;151.182;2023-05-15T10:41:31;94.07;;;87.18;;
20802;SDS011;10562;-33.856;151.182;2023-05-15T10:44:04;103.53;;;96.13;;
20802;SDS011;10562;-33.856;151.182;2023-05-15T10:46:34;106.38;;;98.97;;
20802;SDS011;10562;-33.856;151.182;2023-05-15T10:49:06;122.18;;;113.28;;
20802;SDS011;10562;-33.856;151.182;2023-05-15T10:51:39;133.48;;;124.03;;
20802;SDS011;10562;-33.856;151.182;2023-05-15T10:54:12;141.52;;;131.43;;
20802;SDS011;10562;-33.856;151.182;2023-05-15T10:56:43;136.90;;;127.15;;
20802;SDS011;10562;-33.856;151.182;2023-05-15T10:59:14;146.52;;;136.13;;
20802;SDS011;10562;-33.856;151.182;2023-05-15T11:01:45;138.45;;;128.55;;
20802;SDS011;10562;-33.856;151.182;2023-05-15T11:04:16;136.77;;;126.78;;
20802;SDS011;10562;-33.856;151.182;2023-05-15T11:07:10;128.40;;;119.50;;
20802;SDS011;10562;-33.856;151.182;2023-05-15T11:09:41;127.60;;;118.70;;
20802;SDS011;10562;-33.856;151.182;2023-05-15T11:12:12;121.18;;;112.60;;
20802;SDS011;10562;-33.856;151.182;2023-05-15T11:14:43;124.55;;;115.85;;
20802;SDS011;10562;-33.856;151.182;2023-05-15T11:18:01;120.75;;;112.13;;
20802;SDS011;10562;-33.856;151.182;2023-05-15T11:20:33;125.82;;;117.22;;
20802;SDS011;10562;-33.856;151.182;2023-05-15T11:23:09;124.65;;;115.65;;
20802;SDS011;10562;-33.856;151.182;2023-05-15T11:25:39;130.23;;;120.90;;
20802;SDS011;10562;-33.856;151.182;2023-05-15T11:28:19;137.40;;;127.70;;
20802;SDS011;10562;-33.856;151.182;2023-05-15T11:30:51;139.45;;;129.30;;
20802;SDS011;10562;-33.856;151.182;2023-05-15T11:33:28;143.85;;;133.68;;
20802;SDS011;10562;-33.856;151.182;2023-05-15T11:35:59;145.77;;;135.45;;
20802;SDS011;10562;-33.856;151.182;2023-05-15T11:38:37;146.25;;;135.90;;
20802;SDS011;10562;-33.856;151.182;2023-05-15T11:41:18;153.13;;;141.93;;
20802;SDS011;10562;-33.856;151.182;2023-05-15T11:43:55;155.27;;;144.02;;
20802;SDS011;10562;-33.856;151.182;2023-05-15T11:46:26;157.15;;;145.60;;
20802;SDS011;10562;-33.856;151.182;2023-05-15T11:48:57;168.85;;;156.13;;
20802;SDS011;10562;-33.856;151.182;2023-05-15T11:51:28;159.82;;;148.23;;
20802;SDS011;10562;-33.856;151.182;2023-05-15T11:54:02;166.18;;;153.98;;
20802;SDS011;10562;-33.856;151.182;2023-05-15T11:56:33;165.88;;;153.88;;
20802;SDS011;10562;-33.856;151.182;2023-05-15T11:59:11;176.75;;;163.75;;
20802;SDS011;10562;-33.856;151.182;2023-05-15T12:01:43;172.50;;;158.90;;
20802;SDS011;10562;-33.856;151.182;2023-05-15T12:04:14;176.30;;;162.52;;
20802;SDS011;10562;-33.856;151.182;2023-05-15T12:06:45;180.00;;;166.77;;
20802;SDS011;10562;-33.856;151.182;2023-05-15T12:09:18;167.02;;;154.70;;
20802;SDS011;10562;-33.856;151.182;2023-05-15T12:11:52;170.60;;;158.10;;
20802;SDS011;10562;-33.856;151.182;2023-05-15T12:14:26;164.93;;;153.15;;
20802;SDS011;10562;-33.856;151.182;2023-05-15T12:16:59;164.20;;;152.35;;
20802;SDS011;10562;-33.856;151.182;2023-05-15T12:19:30;162.30;;;149.90;;
20802;SDS011;10562;-33.856;151.182;2023-05-15T12:22:03;169.57;;;157.48;;
20802;SDS011;10562;-33.856;151.182;2023-05-15T12:24:38;164.45;;;152.90;;
20802;SDS011;10562;-33.856;151.182;2023-05-15T12:27:10;167.27;;;155.48;;
20802;SDS011;10562;-33.856;151.182;2023-05-15T12:29:43;171.05;;;158.93;;
20802;SDS011;10562;-33.856;151.182;2023-05-15T12:32:14;176.73;;;164.23;;
20802;SDS011;10562;-33.856;151.182;2023-05-15T12:34:45;162.77;;;149.73;;
20802;SDS011;10562;-33.856;151.182;2023-05-15T12:37:17;185.95;;;172.70;;
20802;SDS011;10562;-33.856;151.182;2023-05-15T12:39:51;188.18;;;175.00;;
20802;SDS011;10562;-33.856;151.182;2023-05-15T12:42:23;184.75;;;171.85;;
20802;SDS011;10562;-33.856;151.182;2023-05-15T12:44:54;181.75;;;168.38;;
20802;SDS011;10562;-33.856;151.182;2023-05-15T12:47:25;187.95;;;174.40;;
20802;SDS011;10562;-33.856;151.182;2023-05-15T12:49:56;171.80;;;157.55;;
20802;SDS011;10562;-33.856;151.182;2023-05-15T12:52:27;184.88;;;171.45;;
20802;SDS011;10562;-33.856;151.182;2023-05-15T12:55:01;182.45;;;169.18;;
20802;SDS011;10562;-33.856;151.182;2023-05-15T12:57:32;176.02;;;163.30;;
20802;SDS011;10562;-33.856;151.182;2023-05-15T13:00:03;181.88;;;168.75;;
20802;SDS011;10562;-33.856;151.182;2023-05-15T13:02:37;177.55;;;164.80;;
20802;SDS011;10562;-33.856;151.182;2023-05-15T13:05:11;183.40;;;170.43;;
20802;SDS011;10562;-33.856;151.182;2023-05-15T13:07:42;175.70;;;163.00;;
20802;SDS011;10562;-33.856;151.182;2023-05-15T13:10:15;169.10;;;154.77;;
20802;SDS011;10562;-33.856;151.182;2023-05-15T13:12:49;179.05;;;166.40;;
20802;SDS011;10562;-33.856;151.182;2023-05-15T13:15:25;185.38;;;172.25;;
20802;SDS011;10562;-33.856;151.182;2023-05-15T13:18:00;183.70;;;170.45;;
20802;SDS011;10562;-33.856;151.182;2023-05-15T13:20:32;190.38;;;176.82;;
20802;SDS011;10562;-33.856;151.182;2023-05-15T13:23:03;188.07;;;174.68;;
20802;SDS011;10562;-33.856;151.182;2023-05-15T13:25:36;187.90;;;174.20;;
20802;SDS011;10562;-33.856;151.182;2023-05-15T13:28:08;214.20;;;198.63;;
20802;SDS011;10562;-33.856;151.182;2023-05-15T13:30:39;219.07;;;203.23;;
20802;SDS011;10562;-33.856;151.182;2023-05-15T13:33:10;217.23;;;201.73;;
20802;SDS011;10562;-33.856;151.182;2023-05-15T13:35:41;220.30;;;204.63;;
20802;SDS011;10562;-33.856;151.182;2023-05-15T13:38:12;222.43;;;206.55;;
20802;SDS011;10562;-33.856;151.182;2023-05-15T13:40:44;209.68;;;193.07;;
20802;SDS011;10562;-33.856;151.182;2023-05-15T13:43:15;218.00;;;202.50;;
20802;SDS011;10562;-33.856;151.182;2023-05-15T13:45:46;229.80;;;213.43;;
20802;SDS011;10562;-33.856;151.182;2023-05-15T13:48:17;220.98;;;205.23;;
20802;SDS011;10562;-33.856;151.182;2023-05-15T13:50:47;224.18;;;208.23;;
20802;SDS011;10562;-33.856;151.182;2023-05-15T13:53:18;221.73;;;205.98;;
20802;SDS011;10562;-33.856;151.182;2023-05-15T13:55:51;220.40;;;204.60;;
20802;SDS011;10562;-33.856;151.182;2023-05-15T13:58:22;217.68;;;202.00;;
20802;SDS011;10562;-33.856;151.182;2023-05-15T14:00:53;217.25;;;201.55;;
20802;SDS011;10562;-33.856;151.182;2023-05-15T14:03:24;232.93;;;216.13;;
20802;SDS011;10562;-33.856;151.182;2023-05-15T14:05:54;237.70;;;220.95;;
20802;SDS011;10562;-33.856;151.182;2023-05-15T14:08:25;231.95;;;215.48;;
20802;SDS011;10562;-33.856;151.182;2023-05-15T14:10:58;219.77;;;202.82;;
20802;SDS011;10562;-33.856;151.182;2023-05-15T14:13:29;223.35;;;207.43;;
20802;SDS011;10562;-33.856;151.182;2023-05-15T14:16:01;231.25;;;214.77;;
20802;SDS011;10562;-33.856;151.182;2023-05-15T14:18:31;240.75;;;223.65;;